Time;durP1;ratioP1;P1;durP2;ratioP2;P2;SDS_P1;SDS_P2;PMS_P1;PMS_P2;Temp;Humidity;BMP_temperature;BMP_pressure;BME280_temperature;BME280_humidity;BME280_pressure;Samples;Min_cycle;Max_cycle;Signal;HPM_P1;HPM_P2
2022/07/27 00:01:48;;;;;;;1.00;1.00;;;21.90;73.50;22.50;96394.00;;;;5054019;28;20231;-88
2022/07/27 00:04:15;;;;;;;1.57;0.80;;;21.90;73.60;22.50;96388.00;;;;5061968;28;20324;-88
2022/07/27 00:06:43;;;;;;;0.80;0.80;;;21.90;74.00;22.50;96389.00;;;;5073255;28;20200;-87
2022/07/27 00:09:11;;;;;;;0.80;0.80;;;21.90;74.00;22.50;96389.00;;;;5058438;28;20277;-88
2022/07/27 00:11:39;;;;;;;1.40;0.90;;;21.90;73.80;22.50;96388.00;;;;5054499;28;20236;-88
2022/07/27 00:14:06;;;;;;;0.97;0.90;;;21.90;73.80;22.50;96389.00;;;;5053027;28;20223;-88
2022/07/27 00:16:33;;;;;;;0.97;0.83;;;21.90;73.80;22.50;96383.00;;;;5054080;28;20228;-87
2022/07/27 00:19:01;;;;;;;1.00;0.90;;;21.90;73.70;22.50;96386.00;;;;5059458;28;20207;-86
2022/07/27 00:21:28;;;;;;;1.40;0.80;;;21.90;73.50;22.50;96380.00;;;;5071325;28;20742;-87
2022/07/27 00:23:56;;;;;;;1.80;0.90;;;21.90;73.70;22.50;96378.00;;;;5059053;28;20216;-88
2022/07/27 00:26:24;;;;;;;1.27;0.80;;;21.90;74.00;22.40;96365.00;;;;5075815;28;20282;-88
2022/07/27 00:28:52;;;;;;;0.77;0.77;;;21.80;73.90;22.40;96362.00;;;;5082206;22;20230;-87
2022/07/27 00:31:19;;;;;;;1.03;0.90;;;21.80;73.50;22.30;96366.00;;;;5073404;28;20282;-86
2022/07/27 00:33:46;;;;;;;0.97;0.97;;;21.80;72.90;22.20;96370.00;;;;5075701;28;20748;-88
2022/07/27 00:36:13;;;;;;;1.40;0.77;;;21.70;72.70;22.20;96364.00;;;;5077673;28;20194;-86
2022/07/27 00:38:40;;;;;;;1.20;0.80;;;21.70;73.00;22.10;96362.00;;;;5072942;28;20254;-84
2022/07/27 00:41:08;;;;;;;0.90;0.87;;;21.60;73.30;22.10;96363.00;;;;5073066;28;20231;-85
2022/07/27 00:46:29;;;;;;;1.70;0.80;;;21.60;73.40;22.00;96349.00;;;;5192337;27;20663;-85
2022/07/27 00:48:56;;;;;;;1.63;1.00;;;21.50;73.50;22.00;96346.00;;;;5150184;27;20237;-86
2022/07/27 00:51:25;;;;;;;1.50;0.87;;;21.50;73.40;22.00;96349.00;;;;5130999;27;20230;-86
2022/07/27 00:53:54;;;;;;;0.80;0.80;;;21.50;73.20;22.00;96357.00;;;;5147781;27;20280;-86
2022/07/27 00:56:22;;;;;;;0.80;0.80;;;21.50;73.50;22.00;96355.00;;;;5150184;27;20225;-86
2022/07/27 00:58:53;;;;;;;1.53;0.87;;;21.40;73.80;22.00;96361.00;;;;5150124;27;20259;-86
2022/07/27 01:01:20;;;;;;;1.30;0.80;;;21.40;73.80;22.00;96356.00;;;;5150759;27;20619;-87
2022/07/27 01:03:49;;;;;;;0.70;0.70;;;21.40;74.10;22.00;96356.00;;;;5150751;27;20280;-86
2022/07/27 01:06:16;;;;;;;0.90;0.90;;;21.40;74.00;22.00;96356.00;;;;5146093;27;20305;-86
2022/07/27 01:08:44;;;;;;;1.83;0.80;;;21.40;74.00;22.00;96349.00;;;;5138402;27;20263;-86
2022/07/27 01:11:12;;;;;;;1.87;0.80;;;21.40;74.20;22.00;96353.00;;;;5136587;27;20270;-86
2022/07/27 01:13:39;;;;;;;1.27;0.80;;;21.40;74.30;22.00;96356.00;;;;5144645;27;20197;-85
2022/07/27 01:16:07;;;;;;;1.00;1.00;;;21.40;74.30;22.00;96348.00;;;;5131832;27;20282;-87
2022/07/27 01:18:37;;;;;;;1.10;1.00;;;21.40;74.10;22.00;96345.00;;;;5138732;27;20296;-87
2022/07/27 01:21:08;;;;;;;0.90;0.90;;;21.40;74.10;21.90;96350.00;;;;5147085;27;20235;-86
2022/07/27 01:23:37;;;;;;;1.97;0.90;;;21.30;74.20;21.90;96339.00;;;;5143823;27;20186;-86
2022/07/27 01:26:06;;;;;;;1.07;0.73;;;21.30;74.10;21.90;96337.00;;;;5136913;27;20244;-87
2022/07/27 01:28:33;;;;;;;1.97;1.17;;;21.30;73.60;21.90;96340.00;;;;5128542;28;20214;-87
2022/07/27 01:31:01;;;;;;;0.87;0.77;;;21.30;73.60;21.80;96325.00;;;;5141956;27;20229;-87
2022/07/27 01:33:28;;;;;;;1.33;1.00;;;21.30;73.50;21.80;96326.00;;;;5149675;27;20283;-86
2022/07/27 01:35:57;;;;;;;0.97;0.80;;;21.20;73.50;21.80;96328.00;;;;5145005;27;20225;-86
2022/07/27 01:38:24;;;;;;;1.33;1.10;;;21.20;73.70;21.70;96319.00;;;;5132788;27;20295;-86
2022/07/27 01:40:54;;;;;;;0.97;0.87;;;21.20;73.80;21.70;96317.00;;;;5139060;27;20243;-86
2022/07/27 01:43:22;;;;;;;1.97;0.90;;;21.20;73.70;21.70;96324.00;;;;5148761;27;20650;-86
2022/07/27 01:45:49;;;;;;;0.70;0.70;;;21.20;73.90;21.70;96324.00;;;;5136938;27;20241;-87
2022/07/27 01:48:17;;;;;;;1.00;0.70;;;21.10;74.00;21.70;96316.00;;;;5148764;27;20235;-86
2022/07/27 01:50:44;;;;;;;0.80;0.80;;;21.10;73.80;21.60;96315.00;;;;5138514;27;20207;-87
2022/07/27 01:53:11;;;;;;;1.30;0.77;;;21.10;73.70;21.60;96310.00;;;;5139170;27;20228;-86
2022/07/27 01:55:38;;;;;;;0.80;0.70;;;21.10;73.90;21.60;96313.00;;;;5128281;28;20884;-86
2022/07/27 01:58:07;;;;;;;1.17;0.67;;;21.10;73.90;21.60;96305.00;;;;5116120;27;20282;-86
2022/07/27 02:00:36;;;;;;;0.77;0.70;;;21.00;73.90;21.50;96300.00;;;;5135381;27;20721;-86
2022/07/27 02:03:04;;;;;;;0.80;0.80;;;21.00;74.10;21.50;96302.00;;;;5135408;27;20193;-86
2022/07/27 02:05:31;;;;;;;1.10;0.80;;;21.00;74.30;21.50;96292.00;;;;5135103;27;20311;-86
2022/07/27 02:07:58;;;;;;;0.90;0.70;;;21.00;74.40;21.50;96287.00;;;;5133961;27;20190;-86
2022/07/27 02:10:25;;;;;;;2.17;1.17;;;21.00;74.50;21.50;96276.00;;;;5131780;27;20190;-87
2022/07/27 02:12:52;;;;;;;0.80;0.80;;;21.00;74.70;21.50;96286.00;;;;5131508;27;20270;-86
2022/07/27 02:15:24;;;;;;;1.50;0.90;;;21.00;75.00;21.50;96286.00;;;;5134824;27;20667;-87
2022/07/27 02:17:53;;;;;;;1.33;1.00;;;21.00;74.90;21.50;96285.00;;;;5136515;27;20278;-87
2022/07/27 02:20:23;;;;;;;1.53;0.90;;;20.90;74.90;21.50;96284.00;;;;5136180;27;20245;-86
2022/07/27 02:22:51;;;;;;;0.80;0.77;;;20.90;75.00;21.50;96285.00;;;;5126136;27;20226;-87
2022/07/27 02:25:19;;;;;;;1.37;1.00;;;20.90;75.00;21.40;96295.00;;;;5118829;27;20225;-87
2022/07/27 02:27:47;;;;;;;1.63;1.00;;;20.90;75.00;21.40;96296.00;;;;5121858;27;20570;-86
2022/07/27 02:30:15;;;;;;;1.30;0.80;;;20.90;75.00;21.40;96300.00;;;;5133357;27;20301;-86
2022/07/27 02:32:44;;;;;;;0.80;0.80;;;20.80;74.90;21.40;96301.00;;;;5122817;27;20230;-86
2022/07/27 02:35:11;;;;;;;0.90;0.80;;;20.80;75.00;21.30;96303.00;;;;5117496;27;20239;-87
2022/07/27 02:37:38;;;;;;;1.83;0.90;;;20.80;75.10;21.30;96305.00;;;;5129097;27;20217;-86
2022/07/27 02:40:07;;;;;;;0.90;0.80;;;20.80;75.20;21.30;96303.00;;;;5134783;27;20722;-86
2022/07/27 02:42:34;;;;;;;0.93;0.83;;;20.70;75.20;21.30;96312.00;;;;5130206;27;20237;-86
2022/07/27 02:45:02;;;;;;;1.63;0.83;;;20.80;75.40;21.30;96310.00;;;;5115415;27;20257;-86
2022/07/27 02:47:29;;;;;;;1.43;0.80;;;20.70;75.40;21.30;96314.00;;;;5118269;27;20191;-86
2022/07/27 02:49:57;;;;;;;0.90;0.80;;;20.70;75.50;21.30;96304.00;;;;5114183;28;20253;-86
2022/07/27 02:52:24;;;;;;;1.17;0.90;;;20.70;75.60;21.30;96317.00;;;;5129776;27;20230;-86
2022/07/27 02:54:51;;;;;;;1.00;1.00;;;20.70;75.80;21.30;96316.00;;;;5133737;27;20285;-86
2022/07/27 02:57:19;;;;;;;0.60;0.60;;;20.70;75.70;21.40;96321.00;;;;5134293;27;20653;-86
2022/07/27 02:59:46;;;;;;;1.87;0.83;;;20.70;75.90;21.40;96316.00;;;;5116111;27;20655;-86
2022/07/27 03:02:13;;;;;;;2.33;0.90;;;20.80;76.10;21.40;96324.00;;;;5127810;27;20273;-86
2022/07/27 03:04:40;;;;;;;2.20;1.03;;;20.80;76.20;21.50;96309.00;;;;5134235;27;20227;-86
2022/07/27 03:07:09;;;;;;;1.70;0.70;;;20.80;76.40;21.50;96319.00;;;;5132383;27;20277;-86
2022/07/27 03:09:36;;;;;;;1.73;0.90;;;20.80;76.40;21.50;96319.00;;;;5133217;27;20245;-85
2022/07/27 03:12:04;;;;;;;0.90;0.90;;;20.80;76.40;21.50;96325.00;;;;5122338;27;20591;-86
2022/07/27 03:14:31;;;;;;;0.93;0.83;;;20.90;76.50;21.60;96332.00;;;;5122765;27;20242;-86
2022/07/27 03:16:58;;;;;;;1.60;1.07;;;20.90;76.70;21.60;96321.00;;;;5126276;27;20244;-87
2022/07/27 03:19:25;;;;;;;2.63;1.00;;;20.90;76.70;21.60;96321.00;;;;5130721;27;20587;-85
2022/07/27 03:21:52;;;;;;;1.73;1.23;;;21.00;76.70;21.70;96325.00;;;;5134367;27;20221;-88
2022/07/27 03:24:21;;;;;;;0.87;0.80;;;21.00;76.70;21.70;96332.00;;;;5133692;27;20663;-86
2022/07/27 03:26:48;;;;;;;0.90;0.90;;;21.00;76.40;21.70;96326.00;;;;5121227;27;20630;-86
2022/07/27 03:29:16;;;;;;;1.70;1.03;;;21.00;76.20;21.60;96315.00;;;;5119051;27;20797;-86
2022/07/27 03:31:44;;;;;;;1.47;1.00;;;21.00;76.10;21.60;96313.00;;;;5124384;27;20278;-85
2022/07/27 03:34:11;;;;;;;0.80;0.80;;;21.10;76.40;21.60;96316.00;;;;5132404;27;20250;-86
2022/07/27 03:36:38;;;;;;;1.60;1.00;;;21.10;76.30;21.60;96315.00;;;;5133574;27;20194;-86
2022/07/27 03:39:06;;;;;;;0.80;0.80;;;21.10;76.10;21.60;96321.00;;;;5133252;27;20214;-86
2022/07/27 03:41:34;;;;;;;1.33;1.13;;;21.10;76.20;21.60;96324.00;;;;5133697;27;20212;-86
2022/07/27 03:44:02;;;;;;;0.83;0.83;;;21.10;76.70;21.60;96325.00;;;;5126292;27;20322;-86
2022/07/27 03:46:29;;;;;;;0.87;0.87;;;21.10;77.10;21.60;96329.00;;;;5126969;27;20318;-86
2022/07/27 03:48:56;;;;;;;0.90;0.90;;;21.10;77.00;21.70;96328.00;;;;5133726;27;20263;-87
2022/07/27 03:51:24;;;;;;;0.70;0.70;;;21.10;77.00;21.70;96317.00;;;;5128398;27;20188;-86
2022/07/27 03:53:51;;;;;;;1.20;1.10;;;21.10;76.90;21.70;96317.00;;;;5122696;27;20194;-86
2022/07/27 03:56:18;;;;;;;1.13;1.03;;;21.10;76.80;21.80;96317.00;;;;5132866;27;20226;-86
2022/07/27 03:58:47;;;;;;;1.17;1.10;;;21.10;76.60;21.80;96307.00;;;;5129604;27;20258;-86
2022/07/27 04:01:14;;;;;;;1.50;1.10;;;21.10;76.40;21.80;96318.00;;;;5123730;27;20228;-86
2022/07/27 04:03:41;;;;;;;0.90;0.90;;;21.10;76.50;21.80;96304.00;;;;5123009;27;20233;-85
2022/07/27 04:06:08;;;;;;;0.97;0.97;;;21.20;76.60;21.90;96309.00;;;;5118144;27;20268;-86
2022/07/27 04:08:35;;;;;;;1.73;1.20;;;21.20;76.60;21.90;96319.00;;;;5120647;27;20241;-86
2022/07/27 04:11:03;;;;;;;1.47;1.10;;;21.20;76.50;21.90;96312.00;;;;5133304;27;20197;-86
2022/07/27 04:13:30;;;;;;;1.27;1.10;;;21.20;76.20;21.90;96305.00;;;;5115005;27;20293;-86
2022/07/27 04:15:58;;;;;;;0.87;0.87;;;21.30;76.10;22.00;96307.00;;;;5122104;27;20215;-83
2022/07/27 04:18:25;;;;;;;2.97;1.40;;;21.30;76.10;22.00;96307.00;;;;5124495;27;20222;-84
2022/07/27 04:20:53;;;;;;;1.20;1.10;;;21.30;76.30;22.00;96309.00;;;;5134496;27;20662;-83
2022/07/27 04:23:20;;;;;;;1.73;0.80;;;21.30;76.30;22.00;96314.00;;;;5133028;27;20242;-83
2022/07/27 04:25:47;;;;;;;2.13;0.90;;;21.30;76.40;22.00;96305.00;;;;5134079;27;20307;-83
2022/07/27 04:28:14;;;;;;;1.37;1.17;;;21.40;76.40;22.10;96308.00;;;;5130335;27;20247;-83
2022/07/27 04:30:41;;;;;;;1.40;1.30;;;21.40;76.40;22.10;96304.00;;;;5122640;27;20221;-82
2022/07/27 04:33:10;;;;;;;1.03;1.03;;;21.40;77.10;22.10;96301.00;;;;5125328;27;20226;-82
2022/07/27 04:35:37;;;;;;;0.87;0.87;;;21.40;76.50;22.20;96301.00;;;;5131353;27;20197;-82
2022/07/27 04:38:04;;;;;;;1.73;1.10;;;21.40;76.60;22.20;96308.00;;;;5124817;27;20190;-82
2022/07/27 04:40:33;;;;;;;1.00;1.00;;;21.40;76.50;22.20;96300.00;;;;5127913;27;20256;-82
2022/07/27 04:43:01;;;;;;;1.00;0.90;;;21.50;76.80;22.20;96308.00;;;;5134002;27;20200;-82
2022/07/27 04:45:28;;;;;;;2.13;1.20;;;21.50;76.70;22.30;96307.00;;;;5124033;28;20297;-83
2022/07/27 04:47:55;;;;;;;0.80;0.80;;;21.50;76.40;22.30;96308.00;;;;5126474;28;20213;-83
2022/07/27 04:50:24;;;;;;;2.60;1.37;;;21.50;76.10;22.30;96313.00;;;;5116695;28;20197;-82
2022/07/27 04:52:51;;;;;;;1.87;1.03;;;21.50;75.90;22.30;96305.00;;;;5135783;28;20225;-83
2022/07/27 04:55:18;;;;;;;1.40;1.30;;;21.60;76.20;22.30;96309.00;;;;5126003;28;20231;-82
2022/07/27 04:57:45;;;;;;;1.20;1.20;;;21.60;76.40;22.30;96312.00;;;;5134800;28;20221;-82
2022/07/27 05:00:13;;;;;;;2.20;1.23;;;21.60;76.40;22.40;96313.00;;;;5130622;28;20277;-82
2022/07/27 05:02:41;;;;;;;1.20;1.10;;;21.60;76.20;22.40;96320.00;;;;5118093;28;20225;-82
2022/07/27 05:05:09;;;;;;;1.20;1.10;;;21.70;76.20;22.40;96329.00;;;;5119573;27;20623;-82
2022/07/27 05:07:38;;;;;;;1.10;1.00;;;21.70;76.20;22.50;96325.00;;;;5114565;28;20214;-82
2022/07/27 05:10:06;;;;;;;2.60;1.27;;;21.70;76.10;22.50;96335.00;;;;5120622;28;20308;-83
2022/07/27 05:12:33;;;;;;;2.13;1.10;;;21.70;76.10;22.60;96329.00;;;;5118992;28;20243;-82
2022/07/27 05:15:01;;;;;;;1.43;1.33;;;21.80;76.10;22.60;96335.00;;;;5127486;28;20186;-83
2022/07/27 05:17:28;;;;;;;1.00;1.00;;;21.80;76.20;22.70;96334.00;;;;5119502;28;20617;-86
2022/07/27 05:19:55;;;;;;;1.23;1.13;;;21.80;76.40;22.70;96342.00;;;;5119466;28;20257;-85
2022/07/27 05:22:22;;;;;;;1.20;1.03;;;21.90;75.90;22.80;96342.00;;;;5119401;28;20289;-86
2022/07/27 05:24:51;;;;;;;1.10;1.10;;;21.90;75.60;22.80;96348.00;;;;5123937;28;20194;-86
2022/07/27 05:27:18;;;;;;;1.90;1.03;;;22.00;75.80;22.90;96351.00;;;;5111714;28;20627;-86
2022/07/27 05:29:45;;;;;;;0.93;0.93;;;22.00;75.30;22.90;96344.00;;;;5128970;27;20219;-82
2022/07/27 05:32:12;;;;;;;1.20;1.20;;;22.00;74.90;23.00;96350.00;;;;5138428;27;20217;-83
2022/07/27 05:34:40;;;;;;;1.00;1.00;;;22.10;75.10;23.00;96351.00;;;;5128395;27;20252;-83
2022/07/27 05:37:08;;;;;;;1.20;1.10;;;22.10;75.30;23.10;96353.00;;;;5124511;27;20651;-82
2022/07/27 05:39:35;;;;;;;1.30;1.20;;;22.20;74.10;23.10;96360.00;;;;5123433;27;20246;-82
2022/07/27 05:42:04;;;;;;;2.50;1.00;;;22.20;73.80;23.10;96355.00;;;;5125883;27;20197;-82
2022/07/27 05:44:31;;;;;;;1.70;1.10;;;22.30;73.60;23.20;96357.00;;;;5132233;27;20237;-82
2022/07/27 05:46:58;;;;;;;3.27;1.03;;;22.30;73.60;23.20;96357.00;;;;5127953;27;20918;-82
2022/07/27 05:49:25;;;;;;;1.03;1.03;;;22.30;73.00;23.30;96357.00;;;;5138291;27;20289;-82
2022/07/27 05:51:53;;;;;;;2.10;1.37;;;22.40;73.00;23.30;96359.00;;;;5116175;27;20687;-82
2022/07/27 05:54:20;;;;;;;0.83;0.83;;;22.40;73.60;23.40;96364.00;;;;5126457;27;20371;-82
2022/07/27 05:56:47;;;;;;;1.00;1.00;;;22.40;72.70;23.40;96366.00;;;;5118775;27;20244;-82
2022/07/27 05:59:16;;;;;;;1.80;1.00;;;22.50;73.00;23.50;96356.00;;;;5128121;27;20215;-82
2022/07/27 06:01:43;;;;;;;1.10;1.10;;;22.50;72.90;23.50;96359.00;;;;5120578;28;20235;-82
2022/07/27 06:04:10;;;;;;;1.67;1.07;;;22.60;72.70;23.60;96371.00;;;;5120038;27;20222;-82
2022/07/27 06:09:21;;;;;;;1.17;1.07;;;22.60;72.30;23.70;96364.00;;;;5125725;27;20275;-82
2022/07/27 06:11:49;;;;;;;1.50;1.07;;;22.70;72.90;23.70;96364.00;;;;5127879;27;20219;-82
2022/07/27 06:14:17;;;;;;;1.07;0.97;;;22.70;72.50;23.70;96367.00;;;;5123881;27;20277;-82
2022/07/27 06:16:44;;;;;;;1.17;1.07;;;22.80;72.30;23.80;96365.00;;;;5123247;27;20731;-82
2022/07/27 06:19:11;;;;;;;1.23;1.13;;;22.80;71.70;23.90;96363.00;;;;5124049;27;20241;-83
2022/07/27 06:21:38;;;;;;;1.30;1.20;;;22.90;71.60;24.00;96363.00;;;;5127664;27;20281;-82
2022/07/27 06:24:06;;;;;;;1.90;1.07;;;23.00;71.10;24.00;96357.00;;;;5128236;27;20244;-82
2022/07/27 06:26:33;;;;;;;1.87;1.00;;;23.00;71.10;24.10;96368.00;;;;5116848;28;20273;-82
2022/07/27 06:29:01;;;;;;;1.00;1.00;;;23.10;71.00;24.20;96365.00;;;;5122069;27;20245;-83
2022/07/27 06:31:30;;;;;;;1.00;0.97;;;23.20;70.90;24.30;96370.00;;;;5118447;28;20235;-83
2022/07/27 06:33:57;;;;;;;1.23;1.10;;;23.20;70.90;24.30;96365.00;;;;5120654;27;20199;-83
2022/07/27 06:36:24;;;;;;;1.50;0.97;;;23.30;71.00;24.40;96363.00;;;;5117428;28;20643;-83
2022/07/27 06:38:51;;;;;;;1.10;1.00;;;23.40;70.80;24.50;96361.00;;;;5121666;27;20218;-83
2022/07/27 06:41:19;;;;;;;2.03;1.10;;;23.40;70.10;24.50;96362.00;;;;5117173;28;20226;-83
2022/07/27 06:43:46;;;;;;;0.80;0.80;;;23.50;69.80;24.50;96366.00;;;;5123161;27;20303;-83
2022/07/27 06:46:13;;;;;;;1.87;0.77;;;23.50;70.30;24.50;96368.00;;;;5121343;27;20757;-83
2022/07/27 06:48:42;;;;;;;0.93;0.93;;;23.60;70.00;24.60;96365.00;;;;5122943;27;20304;-83
2022/07/27 06:51:09;;;;;;;2.33;1.03;;;23.60;69.60;24.60;96363.00;;;;5123040;27;20221;-83
2022/07/27 06:53:37;;;;;;;0.90;0.90;;;23.70;69.80;24.70;96362.00;;;;5130531;27;20238;-84
2022/07/27 06:56:07;;;;;;;0.80;0.80;;;23.70;69.20;24.70;96361.00;;;;5116220;28;20199;-83
2022/07/27 06:58:36;;;;;;;0.87;0.87;;;23.70;68.70;24.70;96366.00;;;;5117566;27;20715;-83
2022/07/27 07:01:04;;;;;;;1.33;0.93;;;23.80;69.00;24.80;96371.00;;;;5119484;27;20287;-83
2022/07/27 07:03:31;;;;;;;1.03;0.93;;;23.80;68.60;24.80;96366.00;;;;5134642;27;20557;-83
2022/07/27 07:05:59;;;;;;;1.23;1.13;;;23.90;68.10;24.80;96366.00;;;;5114470;28;20264;-83
2022/07/27 07:08:27;;;;;;;1.70;1.00;;;23.90;67.90;24.90;96370.00;;;;5131676;27;20247;-86
2022/07/27 07:10:54;;;;;;;1.20;1.10;;;23.90;68.50;24.90;96365.00;;;;5119897;28;20192;-83
2022/07/27 07:13:21;;;;;;;0.90;0.90;;;24.00;69.30;24.90;96371.00;;;;5122045;27;20224;-84
2022/07/27 07:15:49;;;;;;;2.60;1.13;;;24.00;69.50;25.00;96363.00;;;;5125972;27;20197;-83
2022/07/27 07:18:16;;;;;;;1.27;1.00;;;24.00;69.70;25.00;96364.00;;;;5120773;27;20310;-83
2022/07/27 07:20:43;;;;;;;0.80;0.80;;;24.10;69.40;25.10;96358.00;;;;5127994;27;20263;-83
2022/07/27 07:23:12;;;;;;;1.87;1.17;;;24.10;69.40;25.20;96346.00;;;;5130576;27;20701;-83
2022/07/27 07:25:39;;;;;;;2.07;1.13;;;24.10;69.40;25.30;96347.00;;;;5120993;27;20231;-84
2022/07/27 07:28:07;;;;;;;1.67;1.30;;;24.20;69.10;25.40;96357.00;;;;5120297;27;20260;-83
2022/07/27 07:30:35;;;;;;;1.40;1.30;;;24.20;68.70;25.50;96354.00;;;;5125803;27;20658;-83
2022/07/27 07:33:03;;;;;;;1.13;1.07;;;24.30;69.50;25.60;96362.00;;;;5121143;27;20219;-83
2022/07/27 07:35:30;;;;;;;2.23;1.10;;;24.40;69.60;25.70;96357.00;;;;5138079;27;20229;-84
2022/07/27 07:37:57;;;;;;;1.07;1.07;;;24.50;70.20;25.90;96358.00;;;;5125509;27;20263;-83
2022/07/27 07:40:26;;;;;;;1.10;1.00;;;24.60;69.70;26.00;96361.00;;;;5131440;27;20256;-84
2022/07/27 07:42:56;;;;;;;1.20;1.10;;;24.80;69.60;26.10;96364.00;;;;5125372;27;20238;-83
2022/07/27 07:45:25;;;;;;;1.00;1.00;;;24.90;68.70;26.20;96359.00;;;;5120690;27;20210;-84
2022/07/27 07:47:53;;;;;;;0.90;0.90;;;25.00;68.90;26.40;96362.00;;;;5124635;27;20691;-84
2022/07/27 07:50:21;;;;;;;1.57;1.30;;;25.10;69.10;26.50;96370.00;;;;5116192;28;20199;-84
2022/07/27 07:52:50;;;;;;;1.30;1.20;;;25.20;68.00;26.60;96375.00;;;;5123678;27;20222;-83
2022/07/27 07:55:20;;;;;;;1.10;0.97;;;25.40;68.20;26.80;96379.00;;;;5117505;27;20194;-83
2022/07/27 07:57:49;;;;;;;1.23;1.13;;;25.50;67.80;27.00;96378.00;;;;5122577;27;20229;-84
2022/07/27 08:00:18;;;;;;;1.57;1.30;;;25.70;67.40;27.10;96377.00;;;;5114700;28;20321;-85
2022/07/27 08:02:48;;;;;;;1.40;1.30;;;25.80;67.20;27.20;96374.00;;;;5133813;27;20198;-84
2022/07/27 08:05:16;;;;;;;1.73;1.07;;;26.00;66.70;27.30;96378.00;;;;5118625;27;20223;-84
2022/07/27 08:07:45;;;;;;;1.30;1.20;;;26.10;66.10;27.40;96378.00;;;;5126431;27;20266;-83
2022/07/27 08:10:14;;;;;;;1.30;1.20;;;26.20;66.20;27.50;96370.00;;;;5120728;27;20302;-84
2022/07/27 08:12:48;;;;;;;2.17;1.00;;;26.30;65.50;27.60;96377.00;;;;5125616;27;20613;-85
2022/07/27 08:15:17;;;;;;;1.50;1.20;;;26.40;65.10;27.70;96371.00;;;;5126297;27;20220;-84
2022/07/27 08:17:45;;;;;;;2.87;1.20;;;26.50;65.20;27.90;96374.00;;;;5115618;27;20261;-82
2022/07/27 08:20:16;;;;;;;1.40;1.30;;;26.70;64.70;28.00;96374.00;;;;5114046;28;20241;-82
2022/07/27 08:22:44;;;;;;;1.03;1.00;;;26.70;64.40;28.10;96380.00;;;;5115983;27;20199;-83
2022/07/27 08:25:12;;;;;;;1.43;0.90;;;26.80;64.20;28.20;96377.00;;;;5133946;27;20200;-84
2022/07/27 08:27:40;;;;;;;1.30;1.03;;;27.00;64.00;28.40;96377.00;;;;5116030;28;20245;-82
2022/07/27 08:30:10;;;;;;;1.20;1.10;;;27.10;64.30;28.50;96380.00;;;;5132116;27;20277;-84
2022/07/27 08:32:52;;;;;;;1.03;0.87;;;27.20;63.30;28.60;96385.00;;;;5126054;27;20222;-84
2022/07/27 08:35:20;;;;;;;1.23;1.13;;;27.30;61.40;28.60;96387.00;;;;5134265;27;20194;-85
2022/07/27 08:37:47;;;;;;;0.93;0.87;;;27.40;63.10;28.70;96389.00;;;;5126253;27;20689;-83
2022/07/27 08:40:16;;;;;;;0.93;0.90;;;27.50;62.50;28.80;96391.00;;;;5130732;27;20217;-84
2022/07/27 08:42:44;;;;;;;0.93;0.93;;;27.60;61.90;28.90;96385.00;;;;5135427;27;20216;-84
2022/07/27 08:45:15;;;;;;;1.00;0.90;;;27.70;61.50;29.10;96392.00;;;;5125240;28;20194;-83
2022/07/27 08:47:44;;;;;;;1.27;0.93;;;27.80;61.80;29.20;96393.00;;;;5127554;28;20277;-83
2022/07/27 08:50:23;;;;;;;1.50;0.90;;;27.90;61.60;29.30;96394.00;;;;5120795;27;20241;-83
2022/07/27 08:52:58;;;;;;;0.80;0.80;;;28.00;60.20;29.50;96389.00;;;;5127397;28;20190;-84
2022/07/27 08:55:27;;;;;;;0.90;0.90;;;28.10;60.30;29.60;96381.00;;;;5125623;28;20186;-84
2022/07/27 08:57:55;;;;;;;1.30;1.02;;;28.20;61.00;29.70;96386.00;;;;5121329;28;20194;-84
2022/07/27 09:00:23;;;;;;;1.48;1.08;;;28.30;60.60;29.90;96391.00;;;;5125744;28;20225;-84
2022/07/27 09:02:51;;;;;;;0.90;0.80;;;28.40;58.80;30.00;96395.00;;;;5114164;28;20202;-84
2022/07/27 09:05:18;;;;;;;4.68;0.80;;;28.50;59.10;30.10;96389.00;;;;5139947;27;20568;-84
2022/07/27 09:07:45;;;;;;;1.83;1.00;;;28.60;59.70;30.10;96392.00;;;;5137059;27;20304;-85
2022/07/27 09:10:29;;;;;;;0.75;0.75;;;28.70;58.70;30.20;96389.00;;;;5138342;27;20256;-83
2022/07/27 09:12:56;;;;;;;0.85;0.80;;;28.80;58.20;30.20;96393.00;;;;5131424;27;20197;-83
2022/07/27 09:15:25;;;;;;;1.10;1.10;;;28.90;57.50;30.20;96392.00;;;;5129748;27;20198;-84
2022/07/27 09:17:52;;;;;;;1.25;0.90;;;29.00;57.40;30.10;96396.00;;;;5120569;27;20230;-85
2022/07/27 09:20:21;;;;;;;1.80;0.85;;;29.00;57.30;30.10;96396.00;;;;5127026;27;20232;-84
2022/07/27 09:22:51;;;;;;;1.17;1.08;;;29.00;56.50;30.00;96404.00;;;;5128843;27;20489;-84
2022/07/27 09:25:23;;;;;;;1.40;0.65;;;29.00;55.00;29.90;96394.00;;;;5119543;27;20202;-84
2022/07/27 09:27:54;;;;;;;0.70;0.70;;;28.90;56.00;29.90;96404.00;;;;5117334;28;20771;-85
2022/07/27 09:30:25;;;;;;;0.93;0.80;;;28.90;55.70;29.90;96398.00;;;;5121035;27;20305;-87
2022/07/27 09:32:58;;;;;;;0.80;0.80;;;28.90;56.20;29.90;96408.00;;;;5125351;27;20545;-84
2022/07/27 09:35:29;;;;;;;0.70;0.70;;;28.90;55.80;29.90;96405.00;;;;5134705;27;20198;-84
2022/07/27 09:38:16;;;;;;;1.35;0.77;;;28.80;55.60;29.90;96409.00;;;;5125983;27;20198;-83
2022/07/27 09:40:44;;;;;;;3.70;0.80;;;28.80;55.20;29.90;96407.00;;;;5153489;27;20189;-86
2022/07/27 09:43:14;;;;;;;0.50;0.50;;;28.80;55.10;29.90;96404.00;;;;5130236;27;20689;-84
2022/07/27 09:45:43;;;;;;;1.30;1.05;;;28.80;54.70;29.90;96397.00;;;;5124170;27;20235;-86
2022/07/27 09:48:14;;;;;;;0.60;0.60;;;28.80;55.50;30.00;96402.00;;;;5128702;27;20310;-83
2022/07/27 09:50:46;;;;;;;0.95;0.63;;;28.80;55.60;30.00;96399.00;;;;5121935;27;20574;-84
2022/07/27 09:53:20;;;;;;;0.80;0.70;;;28.80;55.60;30.10;96402.00;;;;5130372;27;20194;-85
2022/07/27 09:55:59;;;;;;;0.60;0.60;;;28.90;54.60;30.10;96398.00;;;;5137096;27;20274;-85
2022/07/27 09:58:48;;;;;;;0.50;0.50;;;28.90;53.80;30.10;96395.00;;;;5126878;27;20312;-84
2022/07/27 10:01:20;;;;;;;1.00;0.75;;;28.90;53.10;30.20;96394.00;;;;5115065;28;20592;-84
2022/07/27 10:03:53;;;;;;;1.23;0.70;;;29.00;55.70;30.40;96398.00;;;;5116623;27;20724;-84
2022/07/27 10:06:21;;;;;;;0.75;0.73;;;29.00;55.40;30.50;96391.00;;;;5115002;28;20191;-84
2022/07/27 10:08:50;;;;;;;1.20;0.70;;;29.10;54.10;30.60;96395.00;;;;5117073;27;20222;-84
2022/07/27 10:11:20;;;;;;;0.85;0.70;;;29.20;54.50;30.60;96407.00;;;;5114373;28;20186;-83
2022/07/27 10:13:48;;;;;;;0.68;0.68;;;29.20;54.20;30.70;96396.00;;;;5118279;27;20249;-83
2022/07/27 10:16:19;;;;;;;1.70;0.80;;;29.30;54.40;30.80;96393.00;;;;5121845;27;20201;-83
2022/07/27 10:18:58;;;;;;;3.17;0.77;;;29.40;54.60;30.90;96404.00;;;;5117969;27;20218;-84
2022/07/27 10:21:26;;;;;;;0.93;0.73;;;29.50;54.60;31.00;96401.00;;;;5121801;27;20232;-83
2022/07/27 10:23:59;;;;;;;2.03;0.88;;;29.60;54.80;31.10;96409.00;;;;5120444;27;20277;-84
2022/07/27 10:26:34;;;;;;;2.67;0.95;;;29.70;54.30;31.20;96399.00;;;;5123036;27;20233;-83
2022/07/27 10:29:04;;;;;;;0.95;0.63;;;29.90;54.20;31.40;96412.00;;;;5126622;27;20249;-85
2022/07/27 10:31:37;;;;;;;0.60;0.60;;;30.00;54.60;31.50;96411.00;;;;5119184;27;20547;-84
2022/07/27 10:34:07;;;;;;;1.25;0.63;;;30.20;55.00;31.60;96414.00;;;;5132599;27;20569;-84
2022/07/27 10:36:53;;;;;;;0.85;0.60;;;30.30;54.80;31.60;96414.00;;;;5120505;27;20204;-84
2022/07/27 10:39:37;;;;;;;0.90;0.60;;;30.40;50.80;31.60;96420.00;;;;5122038;27;20297;-84
2022/07/27 10:42:30;;;;;;;0.45;0.45;;;30.50;51.40;31.60;96414.00;;;;5127662;27;20276;-85
2022/07/27 10:45:10;;;;;;;1.50;0.80;;;30.60;50.60;31.70;96415.00;;;;5113319;27;20258;-84
2022/07/27 10:47:43;;;;;;;0.68;0.60;;;30.70;52.60;31.80;96416.00;;;;5124518;27;20759;-84
2022/07/27 10:50:34;;;;;;;0.50;0.50;;;30.70;51.90;31.90;96415.00;;;;5121482;27;20230;-84
2022/07/27 10:53:08;;;;;;;0.68;0.55;;;30.80;48.50;31.90;96418.00;;;;5099997;27;20226;-85
2022/07/27 10:55:47;;;;;;;0.70;0.70;;;30.90;51.30;31.90;96417.00;;;;5113793;28;20191;-84
2022/07/27 10:58:50;;;;;;;0.68;0.68;;;31.00;49.90;31.80;96414.00;;;;5114194;27;20271;-84
2022/07/27 11:01:20;;;;;;;1.33;0.50;;;31.00;48.80;31.80;96414.00;;;;5127562;27;20209;-84
2022/07/27 11:03:53;;;;;;;1.25;0.40;;;31.00;52.10;31.80;96415.00;;;;5131958;27;20194;-84
2022/07/27 11:06:30;;;;;;;2.50;0.65;;;30.90;51.50;31.80;96415.00;;;;5118734;27;20225;-83
2022/07/27 11:09:00;;;;;;;0.63;0.52;;;30.90;50.10;31.80;96416.00;;;;5113823;28;20245;-83